Oriental Clematis — 9VJT5 — position and weather

sailwx.info

Track history (hours):
 
Tides and Currents Weather Stations Pressure Air Temp Water Temp Dewpoint Dewpoint Depression Visibility Wind Speed Wind Dir Waves Ship Positions

Oriental Clematis

Last reported at 2016-Apr-28 10:33 UTC. Time now 2016-May-06 05:31 UTC.
Position N 35°03' E 139°41'.

Length 134 m; draft 5.2 m.

Type: Ship. MMSI: 565157000.

Date/timePositionNaut miles runAvg speedWind from/ knotsBaromVisibWave heightAir tempDewpointWater temp
2016-Apr-28 10:33N 35°03' E 139°41'1313.0
2016-Apr-28 09:33N 35°15' E 139°46'1110.8
2016-Apr-28 08:34N 35°26' E 139°46'1211.9
2016-Apr-28 07:33N 35°33' E 139°58'7 7.1
2016-Apr-28 06:32N 35°36' E 140°05'0 0.0
2016-Apr-28 05:29N 35°36' E 140°05'0 0.0
2016-Apr-28 04:29N 35°36' E 140°05'0 0.0
2016-Apr-28 03:29N 35°36' E 140°05'0 0.0
2016-Apr-28 02:17N 35°36' E 140°05'0 0.0
2016-Apr-28 01:17N 35°36' E 140°05'0 0.0
2016-Apr-28 00:29N 35°36' E 140°05'0 0.0
2016-Apr-27 23:27N 35°36' E 140°05'3 2.8
2016-Apr-27 22:33N 35°35' E 140°03'2 1.3
2016-Apr-27 21:21N 35°35' E 140°01'0 0.0
2016-Apr-27 20:33N 35°35' E 140°01'0 0.0
2016-Apr-27 19:21N 35°35' E 140°01'0 0.0
2016-Apr-27 18:33N 35°35' E 140°01'0 0.0
2016-Apr-27 17:27N 35°35' E 140°01'0 0.0
2016-Apr-27 16:33N 35°35' E 140°01'0 0.0
2016-Apr-27 14:21N 35°35' E 140°01'0 0.0
2016-Apr-27 13:33N 35°35' E 140°01'0 0.0
2016-Apr-27 12:33N 35°35' E 140°01'0 0.0
2016-Apr-27 11:33N 35°35' E 140°01'0 0.0
2016-Apr-27 10:33N 35°35' E 140°01'0 0.0
2016-Apr-27 09:33N 35°35' E 140°01'0 0.0
2016-Apr-27 08:27N 35°35' E 140°01'3 3.9
2016-Apr-27 07:33N 35°36' E 140°05'1 0.6
2016-Apr-27 06:29N 35°36' E 140°06'0 0.0
2016-Apr-27 03:29N 35°36' E 140°06'0 0.0
2016-Apr-27 02:23N 35°36' E 140°06'0 0.0
2016-Apr-27 01:23N 35°36' E 140°06'0 0.0
2016-Apr-27 00:23N 35°36' E 140°06'0 0.0
2016-Apr-26 23:29N 35°36' E 140°06'0 0.1
2016-Apr-26 22:33N 35°36' E 140°05'4 4.1
2016-Apr-26 21:30N 35°34' E 140°01'0 0.1
2016-Apr-26 20:33N 35°34' E 140°01'0 0.0
2016-Apr-26 19:28N 35°34' E 140°01'7 7.5
2016-Apr-26 18:33N 35°30' E 139°54'1212.1
2016-Apr-26 17:33N 35°21' E 139°45'1111.4
2016-Apr-26 16:33N 35°09' E 139°46'1212.2
2016-Apr-26 15:32N 34°58' E 139°40'1212.1
2016-Apr-26 14:33N 34°47' E 139°35'1211.6
2016-Apr-26 13:33N 34°38' E 139°26'1212.0
2016-Apr-26 12:33N 34°33' E 139°13'1212.1
2016-Apr-26 11:33N 34°28' E 138°60'20110.0
2016-Apr-25 15:30N 33°60' E 134°59'1112.0
2016-Apr-25 14:33N 34°11' E 134°58'20 9.8
2016-Apr-25 12:32N 34°28' E 135°11'7 7.3
2016-Apr-25 11:34N 34°26' E 135°19'0 0.0
2016-Apr-25 08:05N 34°26' E 135°19'0 0.0
2016-Apr-25 07:29N 34°26' E 135°19'0 0.0
2016-Apr-25 05:29N 34°26' E 135°19'0 0.0
2016-Apr-25 04:23N 34°26' E 135°19'0 0.0
2016-Apr-25 03:29N 34°26' E 135°19'0 0.0
2016-Apr-25 02:29N 34°26' E 135°19'1 0.2
2016-Apr-24 22:33N 34°26' E 135°19'2 1.5
2016-Apr-24 21:32N 34°28' E 135°18'0 0.0
2016-Apr-24 20:32N 34°28' E 135°18'0 0.0
2016-Apr-24 18:32N 34°28' E 135°18'0 0.0
2016-Apr-24 16:32N 34°28' E 135°18'0 0.0
2016-Apr-24 15:26N 34°28' E 135°18'0 0.0
2016-Apr-24 14:26N 34°28' E 135°18'0 0.0
2016-Apr-24 13:14N 34°28' E 135°18'0 0.0
2016-Apr-24 12:20N 34°28' E 135°18'0 0.1
2016-Apr-24 11:32N 34°28' E 135°18'0 0.1
2016-Apr-24 10:14N 34°28' E 135°18'2 2.6
2016-Apr-24 09:33N 34°28' E 135°16'10 9.6
2016-Apr-24 08:33N 34°24' E 135°06'1010.4
2016-Apr-24 07:33N 34°15' E 134°59'1111.1
2016-Apr-24 06:33N 34°04' E 134°59'  
Track history (hours):
 
Tides and Currents Weather Stations Pressure Air Temp Water Temp Dewpoint Dewpoint Depression Visibility Wind Speed Wind Dir Waves Ship Positions

Oriental Clematis

Last reported at 2016-Apr-28 10:33 UTC. Time now 2016-May-06 05:31 UTC.
Position N 35°03' E 139°41'.

Length 134 m; draft 5.2 m.

Type: Ship. MMSI: 565157000.

Date/timePositionNaut miles runAvg speedWind from/ knotsBaromVisibWave heightAir tempDewpointWater temp
2016-Apr-28 10:33N 35°03' E 139°41'1313.0
2016-Apr-28 09:33N 35°15' E 139°46'1110.8
2016-Apr-28 08:34N 35°26' E 139°46'1211.9
2016-Apr-28 07:33N 35°33' E 139°58'7 7.1
2016-Apr-28 06:32N 35°36' E 140°05'0 0.0
2016-Apr-28 05:29N 35°36' E 140°05'0 0.0
2016-Apr-28 04:29N 35°36' E 140°05'0 0.0
2016-Apr-28 03:29N 35°36' E 140°05'0 0.0
2016-Apr-28 02:17N 35°36' E 140°05'0 0.0
2016-Apr-28 01:17N 35°36' E 140°05'0 0.0
2016-Apr-28 00:29N 35°36' E 140°05'0 0.0
2016-Apr-27 23:27N 35°36' E 140°05'3 2.8
2016-Apr-27 22:33N 35°35' E 140°03'2 1.3
2016-Apr-27 21:21N 35°35' E 140°01'0 0.0
2016-Apr-27 20:33N 35°35' E 140°01'0 0.0
2016-Apr-27 19:21N 35°35' E 140°01'0 0.0
2016-Apr-27 18:33N 35°35' E 140°01'0 0.0
2016-Apr-27 17:27N 35°35' E 140°01'0 0.0
2016-Apr-27 16:33N 35°35' E 140°01'0 0.0
2016-Apr-27 14:21N 35°35' E 140°01'0 0.0
2016-Apr-27 13:33N 35°35' E 140°01'0 0.0
2016-Apr-27 12:33N 35°35' E 140°01'0 0.0
2016-Apr-27 11:33N 35°35' E 140°01'0 0.0
2016-Apr-27 10:33N 35°35' E 140°01'0 0.0
2016-Apr-27 09:33N 35°35' E 140°01'0 0.0
2016-Apr-27 08:27N 35°35' E 140°01'3 3.9
2016-Apr-27 07:33N 35°36' E 140°05'1 0.6
2016-Apr-27 06:29N 35°36' E 140°06'0 0.0
2016-Apr-27 03:29N 35°36' E 140°06'0 0.0
2016-Apr-27 02:23N 35°36' E 140°06'0 0.0
2016-Apr-27 01:23N 35°36' E 140°06'0 0.0
2016-Apr-27 00:23N 35°36' E 140°06'0 0.0
2016-Apr-26 23:29N 35°36' E 140°06'0 0.1
2016-Apr-26 22:33N 35°36' E 140°05'4 4.1
2016-Apr-26 21:30N 35°34' E 140°01'0 0.1
2016-Apr-26 20:33N 35°34' E 140°01'0 0.0
2016-Apr-26 19:28N 35°34' E 140°01'7 7.5
2016-Apr-26 18:33N 35°30' E 139°54'1212.1
2016-Apr-26 17:33N 35°21' E 139°45'1111.4
2016-Apr-26 16:33N 35°09' E 139°46'1212.2
2016-Apr-26 15:32N 34°58' E 139°40'1212.1
2016-Apr-26 14:33N 34°47' E 139°35'1211.6
2016-Apr-26 13:33N 34°38' E 139°26'1212.0
2016-Apr-26 12:33N 34°33' E 139°13'1212.1
2016-Apr-26 11:33N 34°28' E 138°60'20110.0
2016-Apr-25 15:30N 33°60' E 134°59'1112.0
2016-Apr-25 14:33N 34°11' E 134°58'20 9.8
2016-Apr-25 12:32N 34°28' E 135°11'7 7.3
2016-Apr-25 11:34N 34°26' E 135°19'0 0.0
2016-Apr-25 08:05N 34°26' E 135°19'0 0.0
2016-Apr-25 07:29N 34°26' E 135°19'0 0.0
2016-Apr-25 05:29N 34°26' E 135°19'0 0.0
2016-Apr-25 04:23N 34°26' E 135°19'0 0.0
2016-Apr-25 03:29N 34°26' E 135°19'0 0.0
2016-Apr-25 02:29N 34°26' E 135°19'1 0.2
2016-Apr-24 22:33N 34°26' E 135°19'2 1.5
2016-Apr-24 21:32N 34°28' E 135°18'0 0.0
2016-Apr-24 20:32N 34°28' E 135°18'0 0.0
2016-Apr-24 18:32N 34°28' E 135°18'0 0.0
2016-Apr-24 16:32N 34°28' E 135°18'0 0.0
2016-Apr-24 15:26N 34°28' E 135°18'0 0.0
2016-Apr-24 14:26N 34°28' E 135°18'0 0.0
2016-Apr-24 13:14N 34°28' E 135°18'0 0.0
2016-Apr-24 12:20N 34°28' E 135°18'0 0.1
2016-Apr-24 11:32N 34°28' E 135°18'0 0.1
2016-Apr-24 10:14N 34°28' E 135°18'2 2.6
2016-Apr-24 09:33N 34°28' E 135°16'10 9.6
2016-Apr-24 08:33N 34°24' E 135°06'1010.4
2016-Apr-24 07:33N 34°15' E 134°59'1111.1
2016-Apr-24 06:33N 34°04' E 134°59'  

Dump ship's entire track history